»·PEaware :: N8282K KSNA-KPSP

N8282K :: KSNA-KPSP

FLIGHT INFORMATION

Flight Status: Arrived
Operator: Privately registered:
United States
More flights under this callsign
Pilot: Mark B. (402)
Aircraft: PIPER PA-28 CHEROKEE ARCHER
(PA28)
More flights by this aircraft type
Origin: KSNA John Wayne-Orange Co
United States
Destination: KPSP Palm Springs Intl
United States
More flights between these airports :: More routes between these airports
Route: +
File this flight plan on PilotEdge
Remarks:
Altitude:
(Current/Filed)
0ft
Speed:
(Current/Filed)
0kts
Departed: 14-Apr-18 03:30 PM
Arrived: 14-Apr-18 04:00 PM
Distance/Time
Traveled:
68nm/0:30
Distance/Time
To Go:
Arrived

Flight Plot

Page will automatically refresh every two minutes.


Map Options




Map Legend


Flown Route
Filed Route
Departure Airport
Arrival Airport
Navaid (VOR, NDB)
Fix

Horizontal Profiles

Position Reports

Time Latitude Longitude Heading Altitude Ground
Speed
14-Apr-18 15:11 33.667713 -117.870808 217 51ft 0kts
14-Apr-18 15:12 33.667713 -117.870808 217 51ft 0kts
14-Apr-18 15:13 33.667713 -117.870808 217 51ft 0kts
14-Apr-18 15:14 33.667713 -117.870808 217 51ft 0kts
14-Apr-18 15:15 33.667713 -117.870808 217 51ft 0kts
14-Apr-18 15:16 33.667713 -117.870808 217 51ft 0kts
14-Apr-18 15:17 33.668083 -117.871514 18 52ft 5kts
14-Apr-18 15:18 33.670197 -117.869811 39 49ft 14kts
14-Apr-18 15:19 33.672559 -117.867806 30 49ft 9kts
14-Apr-18 15:20 33.675190 -117.866399 30 46ft 14kts
14-Apr-18 15:21 33.679102 -117.863937 28 39ft 12kts
14-Apr-18 15:22 33.679996 -117.863635 309 39ft 0kts
14-Apr-18 15:23 33.679996 -117.863635 309 39ft 0kts
14-Apr-18 15:24 33.679996 -117.863635 309 39ft 0kts
14-Apr-18 15:25 33.679996 -117.863635 309 39ft 0kts
14-Apr-18 15:26 33.679996 -117.863635 309 39ft 0kts
14-Apr-18 15:27 33.679996 -117.863635 309 39ft 0kts
14-Apr-18 15:28 33.679996 -117.863635 309 39ft 0kts
14-Apr-18 15:29 33.676299 -117.866599 210 52ft 90kts
14-Apr-18 15:30 33.647375 -117.874007 118 862ft 140kts
14-Apr-18 15:31 33.637346 -117.826367 101 1479ft 151kts
14-Apr-18 15:32 33.637895 -117.777262 83 2329ft 145kts
14-Apr-18 15:33 33.635939 -117.730258 96 3464ft 139kts
14-Apr-18 15:34 33.629799 -117.684431 99 4456ft 138kts
14-Apr-18 15:35 33.631056 -117.636848 81 5395ft 146kts
14-Apr-18 15:36 33.638117 -117.587263 82 5812ft 156kts
14-Apr-18 15:37 33.648886 -117.532634 72 5595ft 179kts
14-Apr-18 15:38 33.664727 -117.472918 71 5237ft 195kts
14-Apr-18 15:39 33.673703 -117.412898 91 5474ft 180kts
14-Apr-18 15:40 33.676020 -117.351976 87 5489ft 183kts
14-Apr-18 15:41 33.679138 -117.291505 83 5576ft 186kts
14-Apr-18 15:42 33.687383 -117.229223 77 5312ft 189kts
14-Apr-18 15:43 33.699520 -117.170006 76 5349ft 182kts
14-Apr-18 15:44 33.713191 -117.111798 74 5368ft 182kts
14-Apr-18 15:45 33.726307 -117.053795 75 5467ft 177kts
14-Apr-18 15:46 33.735889 -116.994834 72 5435ft 182kts
14-Apr-18 15:47 33.744782 -116.937835 91 6112ft 160kts
14-Apr-18 15:48 33.740892 -116.889691 97 7851ft 147kts
14-Apr-18 15:49 33.737537 -116.837758 91 9089ft 167kts
14-Apr-18 15:50 33.740115 -116.777475 90 9625ft 197kts
14-Apr-18 15:51 33.741130 -116.708384 82 8905ft 217kts
14-Apr-18 15:52 33.750275 -116.642296 79 7962ft 182kts
14-Apr-18 15:53 33.757750 -116.587074 81 6123ft 178kts
14-Apr-18 15:54 33.757563 -116.540864 83 3925ft 124kts
14-Apr-18 15:55 33.767298 -116.506817 56 2423ft 103kts
14-Apr-18 15:56 33.786653 -116.482709 22 1471ft 102kts
14-Apr-18 15:57 33.809851 -116.489706 317 793ft 86kts
14-Apr-18 15:58 33.826636 -116.505080 318 417ft 49kts
14-Apr-18 15:59 33.827841 -116.507202 186 423ft 0kts
14-Apr-18 16:00 33.827213 -116.507240 190 422ft 1kts
14-Apr-18 16:01 33.825776 -116.507761 279 420ft 15kts
14-Apr-18 16:02 33.825847 -116.509845 172 421ft 0kts

Navigation Log

Ident Type
1. KSNA Airport
2. KPSP Airport